createdAt,value
2023-03-15T00:02:12.284Z,70.51
2023-03-15T00:04:42.195Z,70.74
2023-03-15T00:07:11.602Z,70.56
2023-03-15T00:09:41.513Z,70.57
2023-03-15T00:12:10.801Z,70.84
2023-03-15T00:14:40.174Z,70.67
2023-03-15T00:17:09.243Z,70.98
2023-03-15T00:19:38.358Z,71.04
2023-03-15T00:22:08.948Z,70.96
2023-03-15T00:24:37.868Z,71.00
2023-03-15T00:27:08.153Z,71.00
2023-03-15T00:29:37.152Z,70.92
2023-03-15T00:32:06.747Z,71.14
2023-03-15T00:34:35.914Z,71.26
2023-03-15T00:37:05.599Z,71.14
2023-03-15T00:39:38.555Z,71.20
2023-03-15T00:42:09.358Z,71.22
2023-03-15T00:44:38.819Z,71.21
2023-03-15T00:47:08.437Z,71.27
2023-03-15T00:49:37.514Z,71.41
2023-03-15T00:52:09.812Z,71.23
2023-03-15T00:54:38.837Z,71.52
2023-03-15T00:57:08.349Z,71.43
2023-03-15T00:59:36.881Z,71.31
2023-03-15T01:02:08.245Z,71.10
2023-03-15T01:04:37.976Z,71.07
2023-03-15T01:07:07.245Z,71.06
2023-03-15T01:09:36.307Z,70.97
2023-03-15T01:12:06.521Z,71.02
2023-03-15T01:14:37.996Z,71.02
2023-03-15T01:17:06.879Z,71.21
2023-03-15T01:19:37.466Z,71.06
2023-03-15T01:22:06.869Z,71.16
2023-03-15T01:24:37.875Z,71.07
2023-03-15T01:27:07.685Z,71.03
2023-03-15T01:29:37.073Z,71.09
2023-03-15T01:32:08.452Z,71.27
2023-03-15T01:34:38.678Z,71.33
2023-03-15T01:37:08.440Z,71.31
2023-03-15T01:39:38.662Z,71.57
2023-03-15T01:42:09.646Z,71.49
2023-03-15T01:45:01.416Z,71.56
2023-03-15T01:47:32.904Z,71.66
2023-03-15T01:50:10.373Z,71.90
2023-03-15T01:52:42.446Z,71.65
2023-03-15T01:55:17.725Z,71.92
2023-03-15T01:57:57.002Z,72.09
2023-03-15T02:00:26.701Z,71.98
2023-03-15T02:03:04.394Z,72.08
2023-03-15T02:05:39.867Z,72.14
2023-03-15T02:08:10.331Z,72.00
2023-03-15T02:10:45.994Z,72.01
2023-03-15T02:13:20.774Z,72.09
2023-03-15T02:15:50.827Z,72.08
2023-03-15T02:18:21.993Z,71.93
2023-03-15T02:21:08.715Z,71.92
2023-03-15T02:23:37.019Z,71.70
2023-03-15T02:26:08.428Z,71.94
2023-03-15T02:28:37.955Z,71.75
2023-03-15T02:31:07.678Z,71.90
2023-03-15T02:33:43.872Z,71.67
2023-03-15T02:36:30.591Z,71.24
2023-03-15T02:39:02.046Z,71.65
2023-03-15T02:41:37.349Z,71.48
2023-03-15T02:44:22.749Z,71.70
2023-03-15T02:46:55.043Z,71.72
2023-03-15T02:49:28.025Z,71.67
2023-03-15T02:51:57.040Z,71.61
2023-03-15T02:54:25.938Z,71.86
2023-03-15T02:56:54.800Z,71.67
2023-03-15T02:59:23.457Z,71.63
2023-03-15T03:01:52.235Z,71.53
2023-03-15T03:04:21.604Z,71.72
2023-03-15T03:06:50.663Z,71.77
2023-03-15T03:09:19.591Z,71.61
2023-03-15T03:11:49.589Z,71.38
2023-03-15T03:14:19.326Z,71.42
2023-03-15T03:16:49.477Z,71.56
2023-03-15T03:19:19.455Z,71.27
2023-03-15T03:21:47.851Z,71.74
2023-03-15T03:24:19.395Z,71.68
2023-03-15T03:26:49.588Z,71.88
2023-03-15T03:29:19.042Z,71.84
2023-03-15T03:31:48.451Z,71.32
2023-03-15T03:34:18.117Z,71.83
2023-03-15T03:36:46.508Z,71.80
2023-03-15T03:39:15.475Z,71.92
2023-03-15T03:41:45.226Z,72.16
2023-03-15T03:44:14.516Z,72.00
2023-03-15T03:46:43.416Z,71.96
2023-03-15T03:49:15.346Z,72.18
2023-03-15T03:51:46.688Z,72.27
2023-03-15T03:54:17.175Z,72.08
2023-03-15T03:56:47.671Z,71.83
2023-03-15T03:59:17.425Z,72.06
2023-03-15T04:01:52.473Z,71.99
2023-03-15T04:04:21.157Z,71.88
2023-03-15T04:06:51.864Z,72.11
2023-03-15T04:09:26.433Z,72.18
2023-03-15T04:11:56.244Z,71.89
2023-03-15T04:14:26.531Z,71.23
2023-03-15T04:16:55.429Z,71.11
2023-03-15T04:19:23.585Z,71.02
2023-03-15T04:21:53.516Z,71.02
2023-03-15T04:24:42.234Z,70.76
2023-03-15T04:27:15.357Z,70.87
2023-03-15T04:29:45.354Z,70.73
2023-03-15T04:32:13.963Z,70.62
2023-03-15T04:34:43.094Z,70.53
2023-03-15T04:37:12.766Z,70.27
2023-03-15T04:39:43.674Z,70.18
2023-03-15T04:42:14.475Z,70.06
2023-03-15T04:44:44.070Z,70.39
2023-03-15T04:47:13.758Z,69.43
2023-03-15T04:49:43.432Z,69.98
2023-03-15T04:52:11.658Z,69.19
2023-03-15T04:54:39.796Z,69.36
2023-03-15T04:57:09.806Z,69.20
2023-03-15T04:59:40.339Z,68.66
2023-03-15T05:02:09.304Z,68.88
2023-03-15T05:04:37.387Z,68.00
2023-03-15T05:07:06.759Z,68.43
2023-03-15T05:09:40.106Z,68.14
2023-03-15T05:12:10.099Z,68.36
2023-03-15T05:14:38.801Z,67.56
2023-03-15T05:17:08.290Z,67.69
2023-03-15T05:19:43.151Z,68.41
2023-03-15T05:22:11.013Z,68.11
2023-03-15T05:24:39.923Z,68.00
2023-03-15T05:27:10.652Z,68.19
2023-03-15T05:29:39.056Z,67.88
2023-03-15T05:32:08.553Z,66.83
2023-03-15T05:34:38.278Z,67.44
2023-03-15T05:37:07.679Z,66.53
2023-03-15T05:39:36.485Z,66.53
2023-03-15T05:42:07.608Z,65.90
2023-03-15T05:44:36.858Z,65.82
2023-03-15T05:47:04.696Z,64.84
2023-03-15T05:49:33.951Z,65.46
2023-03-15T05:52:05.255Z,64.42
2023-03-15T05:54:33.662Z,64.36
2023-03-15T05:57:03.520Z,63.61
2023-03-15T05:59:33.806Z,65.52
2023-03-15T06:02:04.760Z,65.08
2023-03-15T06:04:35.110Z,65.93
2023-03-15T06:07:04.539Z,66.06
2023-03-15T06:09:35.278Z,65.79
2023-03-15T06:12:06.460Z,65.57
2023-03-15T06:14:35.268Z,66.12
2023-03-15T06:17:05.910Z,66.47
2023-03-15T06:19:37.362Z,66.94
2023-03-15T06:22:06.748Z,66.34
2023-03-15T06:24:36.474Z,66.05
2023-03-15T06:27:05.166Z,66.72
2023-03-15T06:29:36.695Z,65.53
2023-03-15T06:32:06.289Z,66.69
2023-03-15T06:34:34.362Z,65.79
2023-03-15T06:37:04.059Z,66.31
2023-03-15T06:39:35.108Z,66.60
2023-03-15T06:42:05.755Z,66.97
2023-03-15T06:44:34.861Z,66.27
2023-03-15T06:47:05.000Z,66.95
2023-03-15T06:49:38.609Z,66.82
2023-03-15T06:52:08.515Z,66.77
2023-03-15T06:54:37.138Z,66.64
2023-03-15T06:57:06.152Z,66.15
2023-03-15T06:59:34.822Z,65.83
2023-03-15T07:02:03.282Z,64.49
2023-03-15T07:04:32.535Z,65.64
2023-03-15T07:07:00.984Z,64.40
2023-03-15T07:09:30.479Z,64.95
2023-03-15T07:11:59.185Z,63.99
2023-03-15T07:14:31.300Z,62.56
2023-03-15T07:17:01.173Z,63.41
2023-03-15T07:19:30.300Z,62.68
2023-03-15T07:21:59.249Z,62.80
2023-03-15T07:24:28.887Z,61.91
2023-03-15T07:26:58.698Z,60.95
2023-03-15T07:29:27.421Z,61.01
2023-03-15T07:31:56.171Z,61.31
2023-03-15T07:34:25.238Z,60.31
2023-03-15T07:36:54.110Z,59.85
2023-03-15T07:39:24.070Z,60.61
2023-03-15T07:41:53.905Z,61.60
2023-03-15T07:44:22.677Z,61.10
2023-03-15T07:46:52.519Z,61.05
2023-03-15T07:49:23.100Z,61.05
2023-03-15T07:51:52.060Z,61.71
2023-03-15T07:54:20.758Z,62.29
2023-03-15T07:56:49.531Z,60.37
2023-03-15T07:59:18.025Z,60.85
2023-03-15T08:01:48.178Z,57.95
2023-03-15T08:04:16.791Z,59.41
2023-03-15T08:06:45.494Z,58.15
2023-03-15T08:09:14.227Z,57.94
2023-03-15T08:11:44.054Z,58.92
2023-03-15T08:14:13.896Z,59.00
2023-03-15T08:16:43.251Z,60.09
2023-03-15T08:19:11.707Z,60.49
2023-03-15T08:21:40.857Z,59.15
2023-03-15T08:24:10.059Z,58.58
2023-03-15T08:26:40.088Z,60.73
2023-03-15T08:29:10.457Z,58.37
2023-03-15T08:31:39.876Z,60.71
2023-03-15T08:34:07.913Z,61.17
2023-03-15T08:36:37.122Z,59.09
2023-03-15T08:39:06.568Z,60.68
2023-03-15T08:41:36.046Z,61.53
2023-03-15T08:44:04.572Z,61.16
2023-03-15T08:46:34.309Z,60.74
2023-03-15T08:49:03.483Z,58.14
2023-03-15T08:51:32.783Z,57.06
2023-03-15T08:54:04.243Z,59.62
2023-03-15T08:56:32.855Z,59.32
2023-03-15T08:59:01.511Z,57.29
2023-03-15T09:01:30.447Z,56.41
2023-03-15T09:03:58.526Z,59.36
2023-03-15T09:06:26.476Z,56.44
2023-03-15T09:08:54.826Z,55.83
2023-03-15T09:11:24.095Z,57.75
2023-03-15T09:13:54.393Z,52.57
2023-03-15T09:16:22.838Z,51.31
2023-03-15T09:18:50.577Z,48.22
2023-03-15T09:21:18.435Z,47.79
2023-03-15T09:23:46.338Z,46.82
2023-03-15T09:26:15.262Z,46.77
2023-03-15T09:28:43.820Z,46.99
2023-03-15T09:31:11.994Z,45.02
2023-03-15T09:33:40.501Z,44.72
2023-03-15T09:36:09.809Z,47.15
2023-03-15T09:38:38.154Z,47.09
2023-03-15T09:41:07.305Z,50.02
2023-03-15T09:43:42.502Z,46.76
2023-03-15T09:46:30.888Z,49.02
2023-03-15T09:49:33.823Z,48.59
2023-03-15T09:52:26.977Z,49.25
2023-03-15T09:55:02.358Z,46.25
2023-03-15T09:57:37.065Z,51.28
2023-03-15T10:00:11.890Z,45.08
2023-03-15T10:02:52.137Z,49.42
2023-03-15T10:05:36.349Z,48.75
2023-03-15T10:08:11.674Z,51.74
2023-03-15T10:10:47.865Z,51.20
2023-03-15T10:13:17.484Z,50.82
2023-03-15T10:16:22.826Z,50.93
2023-03-15T10:19:06.451Z,47.10
2023-03-15T10:21:42.941Z,45.61
2023-03-15T10:24:23.751Z,45.05
2023-03-15T10:26:55.563Z,49.58
2023-03-15T10:29:26.924Z,48.88
2023-03-15T10:31:55.746Z,45.90
2023-03-15T10:34:27.502Z,46.92
2023-03-15T10:36:58.455Z,52.64
2023-03-15T10:39:26.916Z,46.70
2023-03-15T10:41:55.584Z,50.48
2023-03-15T10:44:28.328Z,46.87
2023-03-15T10:47:23.663Z,46.03
2023-03-15T10:50:01.544Z,50.47
2023-03-15T10:52:36.778Z,51.58
2023-03-15T10:55:26.829Z,49.19
2023-03-15T10:58:00.548Z,52.62
2023-03-15T11:00:34.183Z,53.80
2023-03-15T11:03:07.647Z,52.15
2023-03-15T11:05:46.545Z,54.00
2023-03-15T11:08:18.815Z,52.76
2023-03-15T11:10:54.853Z,53.60
2023-03-15T11:13:27.090Z,53.13
2023-03-15T11:16:05.436Z,53.85
2023-03-15T11:18:39.029Z,55.33
2023-03-15T11:21:11.332Z,55.97
2023-03-15T11:23:45.617Z,51.83
2023-03-15T11:26:32.965Z,55.42
2023-03-15T11:29:15.331Z,57.68
2023-03-15T11:31:43.689Z,53.80
2023-03-15T11:34:23.511Z,56.93
2023-03-15T11:37:07.571Z,56.50
2023-03-15T11:39:46.472Z,54.86
2023-03-15T11:42:22.181Z,55.19
2023-03-15T11:44:56.567Z,53.65
2023-03-15T11:47:41.011Z,51.82
2023-03-15T11:50:15.937Z,53.06
2023-03-15T11:52:50.070Z,55.43
2023-03-15T11:55:27.884Z,54.24
2023-03-15T11:57:58.688Z,51.24
2023-03-15T12:00:50.900Z,48.14
2023-03-15T12:03:42.171Z,46.91
2023-03-15T12:06:14.611Z,46.84
2023-03-15T12:08:48.886Z,46.14
2023-03-15T12:11:38.045Z,50.76
2023-03-15T12:14:22.315Z,46.82
2023-03-15T12:16:50.541Z,48.55
2023-03-15T12:19:23.486Z,52.50
2023-03-15T12:21:54.276Z,56.40
2023-03-15T12:24:23.838Z,56.44
2023-03-15T12:27:16.326Z,58.21
2023-03-15T12:29:47.617Z,56.67
2023-03-15T12:32:18.904Z,55.26
2023-03-15T12:34:50.813Z,60.01
2023-03-15T12:37:26.534Z,59.68
2023-03-15T12:40:35.059Z,54.71
2023-03-15T12:43:03.782Z,59.28
2023-03-15T12:45:40.555Z,58.12
2023-03-15T12:48:24.098Z,57.26
2023-03-15T12:50:57.193Z,56.78
2023-03-15T12:53:37.501Z,56.86
2023-03-15T12:56:33.251Z,58.58
2023-03-15T12:59:13.983Z,57.46
2023-03-15T13:01:44.391Z,58.95
2023-03-15T13:04:14.555Z,53.93
2023-03-15T13:07:03.619Z,56.98
2023-03-15T13:10:07.340Z,57.82
2023-03-15T13:12:47.927Z,57.19
2023-03-15T13:15:22.586Z,56.75
2023-03-15T13:18:00.923Z,55.11
2023-03-15T13:20:39.539Z,55.97
2023-03-15T13:23:28.707Z,55.97
2023-03-15T13:26:34.463Z,55.59
2023-03-15T13:29:15.824Z,59.07
2023-03-15T13:31:45.711Z,55.88
2023-03-15T13:34:19.488Z,59.18
2023-03-15T13:36:55.081Z,57.85
2023-03-15T13:39:29.046Z,59.45
2023-03-15T13:42:07.909Z,59.22
2023-03-15T13:44:36.339Z,59.77
2023-03-15T13:47:04.056Z,57.81
2023-03-15T13:49:35.460Z,59.34
2023-03-15T13:52:12.489Z,60.29
2023-03-15T13:54:41.895Z,59.90
2023-03-15T13:57:19.978Z,60.92
2023-03-15T14:00:13.585Z,60.79
2023-03-15T14:02:50.306Z,59.99
2023-03-15T14:05:27.895Z,58.31
2023-03-15T14:08:04.726Z,60.21
2023-03-15T14:10:33.830Z,61.32
2023-03-15T14:13:21.942Z,60.71
2023-03-15T14:15:52.452Z,58.75
2023-03-15T14:18:26.430Z,61.03
2023-03-15T14:21:00.580Z,59.50
2023-03-15T14:23:31.092Z,61.98
2023-03-15T14:26:20.316Z,61.30
2023-03-15T14:29:10.326Z,60.94
2023-03-15T14:31:48.022Z,62.33
2023-03-15T14:34:34.147Z,63.46
2023-03-15T14:37:07.108Z,62.80
2023-03-15T14:39:36.120Z,63.58
2023-03-15T14:42:04.299Z,60.91
2023-03-15T14:44:33.166Z,62.46
2023-03-15T14:47:04.044Z,61.23
2023-03-15T14:49:32.522Z,63.29
2023-03-15T14:52:05.472Z,63.71
2023-03-15T14:54:35.012Z,61.09
2023-03-15T14:57:05.269Z,63.71
2023-03-15T14:59:34.537Z,64.69
2023-03-15T15:02:03.422Z,63.03
2023-03-15T15:04:34.827Z,64.07
2023-03-15T15:07:03.524Z,60.86
2023-03-15T15:09:32.439Z,63.80
2023-03-15T15:12:01.324Z,63.54
2023-03-15T15:14:28.753Z,63.77
2023-03-15T15:16:56.981Z,63.57
2023-03-15T15:19:26.394Z,63.34
2023-03-15T15:21:56.040Z,62.60
2023-03-15T15:24:29.005Z,63.42
2023-03-15T15:26:58.278Z,63.12
2023-03-15T15:29:26.428Z,64.67
2023-03-15T15:31:54.548Z,66.14
2023-03-15T15:34:23.601Z,65.51
2023-03-15T15:36:52.470Z,63.70
2023-03-15T15:39:27.778Z,66.86
2023-03-15T15:41:56.821Z,66.83
2023-03-15T15:44:27.154Z,66.61
2023-03-15T15:46:57.538Z,65.99
2023-03-15T15:49:24.727Z,65.92
2023-03-15T15:51:53.280Z,66.11
2023-03-15T15:54:26.024Z,66.08
2023-03-15T15:56:58.243Z,65.46
2023-03-15T15:59:27.600Z,64.88
2023-03-15T16:02:01.644Z,65.56
2023-03-15T16:04:31.355Z,65.52
2023-03-15T16:07:02.899Z,65.32
2023-03-15T16:09:36.775Z,65.58
2023-03-15T16:12:15.378Z,66.48
2023-03-15T16:14:45.421Z,66.21
2023-03-15T16:17:19.793Z,65.32
2023-03-15T16:19:49.228Z,65.46
2023-03-15T16:22:20.035Z,65.91
2023-03-15T16:24:53.799Z,66.45
2023-03-15T16:27:25.637Z,65.95
2023-03-15T16:29:56.277Z,66.01
2023-03-15T16:32:41.397Z,65.61
2023-03-15T16:35:16.502Z,66.09
2023-03-15T16:37:46.618Z,66.12
2023-03-15T16:40:35.145Z,66.01
2023-03-15T16:43:03.472Z,65.99
2023-03-15T16:45:31.819Z,66.50
2023-03-15T16:48:01.519Z,66.23
2023-03-15T16:50:31.290Z,66.34
2023-03-15T16:53:06.125Z,66.61
2023-03-15T16:55:35.354Z,66.89
2023-03-15T16:58:15.903Z,65.99
2023-03-15T17:01:03.671Z,66.25
2023-03-15T17:03:33.809Z,66.00
2023-03-15T17:06:02.142Z,65.97
2023-03-15T17:08:30.552Z,66.01
2023-03-15T17:10:59.634Z,66.56
2023-03-15T17:13:31.571Z,66.16
2023-03-15T17:16:02.351Z,66.41
2023-03-15T17:18:30.813Z,65.96
2023-03-15T17:20:59.426Z,66.41
2023-03-15T17:23:27.754Z,66.92
2023-03-15T17:25:57.024Z,67.05
2023-03-15T17:28:25.905Z,67.38
2023-03-15T17:30:59.806Z,66.77
2023-03-15T17:33:37.024Z,67.75
2023-03-15T17:36:08.209Z,68.06
2023-03-15T17:38:41.778Z,68.24
2023-03-15T17:41:19.667Z,68.06
2023-03-15T17:43:49.825Z,68.32
2023-03-15T17:46:21.863Z,69.66
2023-03-15T17:48:50.565Z,69.54
2023-03-15T17:51:22.792Z,69.76
2023-03-15T17:53:52.613Z,68.67
2023-03-15T17:56:23.748Z,68.75
2023-03-15T17:58:53.342Z,68.82
2023-03-15T18:01:27.408Z,69.30
2023-03-15T18:03:56.582Z,69.89
2023-03-15T18:06:25.864Z,68.89
2023-03-15T18:08:55.072Z,69.91
2023-03-15T18:11:32.733Z,69.04
2023-03-15T18:14:02.225Z,68.96
2023-03-15T18:16:32.322Z,69.27
2023-03-15T18:19:00.945Z,69.45
2023-03-15T18:21:28.859Z,68.66
2023-03-15T18:23:57.202Z,68.31
2023-03-15T18:26:25.406Z,69.09
2023-03-15T18:28:54.304Z,69.86
2023-03-15T18:31:26.274Z,70.02
2023-03-15T18:33:55.771Z,69.97
2023-03-15T18:36:25.496Z,69.54
2023-03-15T18:38:54.433Z,69.08
2023-03-15T18:41:25.542Z,68.31
2023-03-15T18:43:54.689Z,68.64
2023-03-15T18:46:25.786Z,69.71
2023-03-15T18:48:54.734Z,69.42
2023-03-15T18:51:26.573Z,69.56
2023-03-15T18:53:56.356Z,68.75
2023-03-15T18:56:28.607Z,68.36
2023-03-15T18:58:57.881Z,68.65
2023-03-15T19:01:26.611Z,68.69
2023-03-15T19:03:56.018Z,68.38
2023-03-15T19:06:27.953Z,68.60
2023-03-15T19:08:56.715Z,68.38
2023-03-15T19:11:27.328Z,68.75
2023-03-15T19:13:56.918Z,68.56
2023-03-15T19:16:25.555Z,68.93
2023-03-15T19:18:54.070Z,69.77
2023-03-15T19:21:21.959Z,69.51
2023-03-15T19:23:51.548Z,68.69
2023-03-15T19:26:20.511Z,68.80
2023-03-15T19:28:49.249Z,69.73
2023-03-15T19:31:18.038Z,70.40
2023-03-15T19:33:46.963Z,70.69
2023-03-15T19:36:17.857Z,69.84
2023-03-15T19:38:46.908Z,69.28
2023-03-15T19:41:14.526Z,70.05
2023-03-15T19:43:57.103Z,69.23
2023-03-15T19:46:26.211Z,69.39
2023-03-15T19:48:54.800Z,69.64
2023-03-15T19:51:22.804Z,69.91
2023-03-15T19:53:51.139Z,70.18
2023-03-15T19:56:19.499Z,71.00
2023-03-15T19:58:49.074Z,70.41
2023-03-15T20:01:19.414Z,69.80
2023-03-15T20:03:48.377Z,70.15
2023-03-15T20:06:17.500Z,70.07
2023-03-15T20:08:46.513Z,70.12
2023-03-15T20:11:20.106Z,70.25
2023-03-15T20:13:48.889Z,70.08
2023-03-15T20:16:19.211Z,70.91
2023-03-15T20:18:48.727Z,71.31
2023-03-15T20:21:18.031Z,69.83
2023-03-15T20:23:48.666Z,70.07
2023-03-15T20:26:19.533Z,69.83
2023-03-15T20:28:48.835Z,70.13
2023-03-15T20:31:20.388Z,70.59
2023-03-15T20:33:50.812Z,70.20
2023-03-15T20:36:20.817Z,70.17
2023-03-15T20:38:49.294Z,70.34
2023-03-15T20:41:19.405Z,70.90
2023-03-15T20:43:47.469Z,70.76
2023-03-15T20:46:19.723Z,70.42
2023-03-15T20:48:48.567Z,71.08
2023-03-15T20:51:17.244Z,70.88
2023-03-15T20:53:46.261Z,71.17
2023-03-15T20:56:15.027Z,70.81
2023-03-15T20:58:44.424Z,71.09
2023-03-15T21:01:15.521Z,71.84
2023-03-15T21:03:45.847Z,71.43
2023-03-15T21:06:15.289Z,70.83
2023-03-15T21:08:44.162Z,71.33
2023-03-15T21:11:13.387Z,71.23
2023-03-15T21:13:42.271Z,71.08
2023-03-15T21:16:13.251Z,70.97
2023-03-15T21:18:45.349Z,70.95
2023-03-15T21:21:15.847Z,72.42
2023-03-15T21:23:44.055Z,71.60
2023-03-15T21:26:14.084Z,71.31
2023-03-15T21:28:43.403Z,71.21
2023-03-15T21:31:12.119Z,71.79
2023-03-15T21:33:42.828Z,71.58
2023-03-15T21:36:11.944Z,71.50
2023-03-15T21:38:40.010Z,71.99
2023-03-15T21:41:10.047Z,71.23
2023-03-15T21:43:39.260Z,71.36
2023-03-15T21:46:12.739Z,73.04
2023-03-15T21:48:43.082Z,71.87
2023-03-15T21:51:14.918Z,71.61
2023-03-15T21:53:43.022Z,71.56
2023-03-15T21:56:14.125Z,72.29
2023-03-15T21:58:43.887Z,72.68
2023-03-15T22:01:15.395Z,72.56
2023-03-15T22:03:45.170Z,72.69
2023-03-15T22:06:14.426Z,72.53
2023-03-15T22:08:42.384Z,72.21
2023-03-15T22:11:10.556Z,71.34
2023-03-15T22:13:39.137Z,71.54
2023-03-15T22:16:08.629Z,71.41
2023-03-15T22:18:38.258Z,71.49
2023-03-15T22:21:07.843Z,71.80
2023-03-15T22:23:37.584Z,71.79
2023-03-15T22:26:06.445Z,72.02
2023-03-15T22:28:36.298Z,71.71
2023-03-15T22:31:05.206Z,71.69
2023-03-15T22:33:33.241Z,71.86
2023-03-15T22:36:04.203Z,71.74
2023-03-15T22:38:38.441Z,72.23
2023-03-15T22:41:09.225Z,72.12
2023-03-15T22:43:38.626Z,72.87
2023-03-15T22:46:08.884Z,72.62
2023-03-15T22:48:39.031Z,72.05
2023-03-15T22:51:12.418Z,71.77
2023-03-15T22:53:41.452Z,71.94
2023-03-15T22:56:10.263Z,72.83
2023-03-15T22:58:38.858Z,73.74
2023-03-15T23:01:08.196Z,72.38
2023-03-15T23:03:36.472Z,72.75
2023-03-15T23:06:05.589Z,72.69
2023-03-15T23:08:33.540Z,73.21
2023-03-15T23:11:04.435Z,72.96
2023-03-15T23:13:33.214Z,73.54
2023-03-15T23:16:05.208Z,73.19
2023-03-15T23:18:34.782Z,73.63
2023-03-15T23:21:13.410Z,75.45
2023-03-15T23:23:44.006Z,73.75
2023-03-15T23:26:14.027Z,73.63
2023-03-15T23:28:42.326Z,72.84
2023-03-15T23:31:11.697Z,73.60
2023-03-15T23:33:41.034Z,73.78
2023-03-15T23:36:09.382Z,74.29
2023-03-15T23:38:38.954Z,74.24
2023-03-15T23:41:08.761Z,73.43
2023-03-15T23:43:37.082Z,74.79
2023-03-15T23:46:06.336Z,74.43
2023-03-15T23:48:37.326Z,74.91
2023-03-15T23:51:06.454Z,73.83
2023-03-15T23:53:35.951Z,73.70
2023-03-15T23:56:04.491Z,75.75
2023-03-15T23:58:33.405Z,72.97
